Map

Track Data

SID SEASON NUMBER BASIN SUBBASIN NAME ISO_TIME NATURE LAT LON WMO_WIND WMO_PRES WMO_AGENCY TRACK_TYPE DIST2LAND LANDFALL IFLAG USA_AGENCY USA_ATCF_ID USA_LAT USA_LON USA_RECORD USA_STATUS USA_WIND USA_PRES USA_SSHS USA_R34_NE USA_R34_SE USA_R34_SW USA_R34_NW USA_R50_NE USA_R50_SE USA_R50_SW USA_R50_NW USA_R64_NE USA_R64_SE USA_R64_SW USA_R64_NW USA_POCI USA_ROCI USA_RMW USA_EYE TOKYO_LAT TOKYO_LON TOKYO_GRADE TOKYO_WIND TOKYO_PRES TOKYO_R50_DIR TOKYO_R50_LONG TOKYO_R50_SHORT TOKYO_R30_DIR TOKYO_R30_LONG TOKYO_R30_SHORT TOKYO_LAND CMA_LAT CMA_LON CMA_CAT CMA_WIND CMA_PRES HKO_LAT HKO_LON HKO_CAT HKO_WIND HKO_PRES NEWDELHI_LAT NEWDELHI_LON NEWDELHI_GRADE NEWDELHI_WIND NEWDELHI_PRES NEWDELHI_CI NEWDELHI_DP NEWDELHI_POCI REUNION_LAT REUNION_LON REUNION_TYPE REUNION_WIND REUNION_PRES REUNION_TNUM REUNION_CI REUNION_RMW REUNION_R34_NE REUNION_R34_SE REUNION_R34_SW REUNION_R34_NW REUNION_R50_NE REUNION_R50_SE REUNION_R50_SW REUNION_R50_NW REUNION_R64_NE REUNION_R64_SE REUNION_R64_SW REUNION_R64_NW BOM_LAT BOM_LON BOM_TYPE BOM_WIND BOM_PRES BOM_TNUM BOM_CI BOM_RMW BOM_R34_NE BOM_R34_SE BOM_R34_SW BOM_R34_NW BOM_R50_NE BOM_R50_SE BOM_R50_SW BOM_R50_NW BOM_R64_NE BOM_R64_SE BOM_R64_SW BOM_R64_NW BOM_ROCI BOM_POCI BOM_EYE BOM_POS_METHOD BOM_PRES_METHOD NADI_LAT NADI_LON NADI_CAT NADI_WIND NADI_PRES WELLINGTON_LAT WELLINGTON_LON WELLINGTON_WIND WELLINGTON_PRES DS824_LAT DS824_LON DS824_STAGE DS824_WIND DS824_PRES TD9636_LAT TD9636_LON TD9636_STAGE TD9636_WIND TD9636_PRES TD9635_LAT TD9635_LON TD9635_WIND TD9635_PRES TD9635_ROCI NEUMANN_LAT NEUMANN_LON NEUMANN_CLASS NEUMANN_WIND NEUMANN_PRES MLC_LAT MLC_LON MLC_CLASS MLC_WIND MLC_PRES USA_GUST BOM_GUST BOM_GUST_PER REUNION_GUST REUNION_GUST_PER USA_SEAHGT USA_SEARAD_NE USA_SEARAD_SE USA_SEARAD_SW USA_SEARAD_NW STORM_SPEED STORM_DIR
1909071S16060 1909 18 SI MM NOT_NAMED 1909-03-12 00:00:00 NR -15.8925 59.9926 spur-split 529 509 ______________ -1 4 173
1909071S16060 1909 18 SI MM NOT_NAMED 1909-03-12 03:00:00 NR -16.0928 59.9929 spur-split 509 489 ______________ -1 4 0
1909071S16060 1909 18 SI MM NOT_NAMED 1909-03-12 06:00:00 NR -16.3000 60.0000 spur-split 489 470 __________O___ -1 -16.3000 60.0000 7 4 177
1909071S16060 1909 18 SI MM NOT_NAMED 1909-03-12 09:00:00 NR -16.5219 60.0218 spur-split 470 451 __________P___ -1 -16.5297 60.0327 7 5 176
1909071S16060 1909 18 SI MM NOT_NAMED 1909-03-12 12:00:00 NR -16.7500 60.0499 spur-split 441 429 __________P___ -1 -16.7575 60.0624 7 5 173
1909071S16060 1909 18 SI MM NOT_NAMED 1909-03-12 15:00:00 NR -16.9781 60.0781 spur-split 429 411 __________P___ -1 -16.9816 60.0859 7 5 176
1909071S16060 1909 18 SI MM NOT_NAMED 1909-03-12 18:00:00 NR -17.2000 60.1000 spur-split 411 393 __________O___ -1 -17.2000 60.1000 7 4 178
1909071S16060 1909 18 SI MM NOT_NAMED 1909-03-12 21:00:00 NR -17.4112 60.1032 spur-split 393 376 __________P___ -1 -17.4112 60.1032 7 4 0
1909071S16060 1909 18 SI MM NOT_NAMED 1909-03-13 00:00:00 NR -17.6150 60.1001 spur-split 376 360 __________P___ -1 -17.6150 60.1001 7 4 0
1909071S16060 1909 18 SI MM NOT_NAMED 1909-03-13 03:00:00 NR -17.8112 60.0969 spur-split 360 344 __________P___ -1 -17.8112 60.0969 7 4 183
1909071S16060 1909 18 SI MM NOT_NAMED 1909-03-13 06:00:00 NR -18.0000 60.1000 spur-split 344 329 __________O___ -1 -18.0000 60.1000 7 4 178
1909071S16060 1909 18 SI MM NOT_NAMED 1909-03-13 09:00:00 NR -18.1862 60.1178 spur-split 329 315 __________P___ -1 -18.1862 60.1178 7 4 174
1909071S16060 1909 18 SI MM NOT_NAMED 1909-03-13 12:00:00 NR -18.3650 60.1425 spur-split 315 315 __________P___ -1 -18.3650 60.1425 7 4 172
1909071S16060 1909 18 SI MM NOT_NAMED 1909-03-13 15:00:00 NR -18.5363 60.1709 spur-split 317 305 __________P___ -1 -18.5363 60.1709 7 3 170
1909071S16060 1909 18 SI MM NOT_NAMED 1909-03-13 18:00:00 NR -18.7000 60.2000 spur-split 305 299 __________O___ -1 -18.7000 60.2000 7 3 171
1909071S16060 1909 18 SI MM NOT_NAMED 1909-03-13 21:00:00 NR -18.8287 60.2090 spur-split 299 294 __________P___ -1 -18.8287 60.2090 7 3 174
1909071S16060 1909 18 SI MM NOT_NAMED 1909-03-14 00:00:00 NR -18.9549 60.2204 spur-split 289 284 __________P___ -1 -18.9549 60.2204 7 3 173
1909071S16060 1909 18 SI MM NOT_NAMED 1909-03-14 03:00:00 NR -19.1037 60.2466 spur-split 284 284 __________P___ -1 -19.1037 60.2466 7 4 167
1909071S16060 1909 18 SI MM NOT_NAMED 1909-03-14 06:00:00 NR -19.3000 60.3000 spur-split 284 276 __________O___ -1 -19.3000 60.3000 7 5 164
1909071S16060 1909 18 SI MM NOT_NAMED 1909-03-14 09:00:00 NR -19.6032 60.3959 spur-split 282 277 __________P___ -1 -19.6032 60.3959 7 7 162
1909071S16060 1909 18 SI MM NOT_NAMED 1909-03-14 12:00:00 NR -19.9501 60.5195 spur-split 283 283 __________P___ -1 -19.9501 60.5195 7 7 161
1909071S16060 1909 18 SI MM NOT_NAMED 1909-03-14 15:00:00 NR -20.2969 60.6584 spur-split 302 302 __________P___ -1 -20.2969 60.6584 7 7 158
1909071S16060 1909 18 SI MM NOT_NAMED 1909-03-14 18:00:00 NR -20.6000 60.8000 spur-split 314 314 __________O___ -1 -20.6000 60.8000 7 6 153
1909071S16060 1909 18 SI MM NOT_NAMED 1909-03-14 21:00:00 NR -20.8084 60.9333 spur-split 327 327 __________P___ -1 -20.8084 60.9333 7 4 146
1909071S16060 1909 18 SI MM NOT_NAMED 1909-03-15 00:00:00 NR -20.9675 61.0652 spur-split 352 352 __________P___ -1 -20.9675 61.0652 7 4 140
1909071S16060 1909 18 SI MM NOT_NAMED 1909-03-15 03:00:00 NR -21.0928 61.1895 spur-split 364 364 __________P___ -1 -21.0928 61.1895 7 3 136
1909071S16060 1909 18 SI MM NOT_NAMED 1909-03-15 06:00:00 NR -21.2000 61.3000 spur-split 377 377 __________O___ -1 -21.2000 61.3000 7 3 140
1909071S16060 1909 18 SI MM NOT_NAMED 1909-03-15 09:00:00 NR -21.3143 61.3895 spur-split 390 390 __________P___ -1 -21.3143 61.3895 7 3 144
1909071S16060 1909 18 SI MM NOT_NAMED 1909-03-15 12:00:00 NR -21.4149 61.4652 spur-split 403 403 __________P___ -1 -21.4149 61.4652 7 2 146
1909071S16060 1909 18 SI MM NOT_NAMED 1909-03-15 15:00:00 NR -21.5081 61.5332 spur-split 407 407 __________P___ -1 -21.5081 61.5332 7 2 146
1909071S16060 1909 18 SI MM NOT_NAMED 1909-03-15 18:00:00 NR -21.6000 61.6000 spur-split 420 420 __________O___ -1 -21.6000 61.6000 7 2 148
1909071S16060 1909 18 SI MM NOT_NAMED 1909-03-15 21:00:00 NR -21.6754 61.6429 spur-split 424 424 __________P___ -1 -21.6754 61.6429 7 2 151
1909071S16060 1909 18 SI MM NOT_NAMED 1909-03-16 00:00:00 NR -21.7547 61.6907 spur-split 438 438 __________P___ -1 -21.7547 61.6907 7 2 147
1909071S16060 1909 18 SI MM NOT_NAMED 1909-03-16 03:00:00 NR -21.8566 61.7681 spur-split 451 451 __________P___ -1 -21.8566 61.7681 7 3 142
1909071S16060 1909 18 SI MM NOT_NAMED 1909-03-16 06:00:00 NR -22.0000 61.9000 spur-split 465 465 __________O___ -1 -22.0000 61.9000 7 5 139
1909071S16060 1909 18 SI MM NOT_NAMED 1909-03-16 09:00:00 NR -22.2192 62.1129 spur-split 493 493 __________P___ -1 -22.2192 62.1129 7 7 137
1909071S16060 1909 18 SI MM NOT_NAMED 1909-03-16 12:00:00 NR -22.4777 62.3818 spur-split 535 535 __________P___ -1 -22.4777 62.3818 7 7 135
1909071S16060 1909 18 SI MM NOT_NAMED 1909-03-16 15:00:00 NR -22.7473 62.6849 spur-split 572 572 __________P___ -1 -22.7473 62.6849 7 8 132
1909071S16060 1909 18 SI MM NOT_NAMED 1909-03-16 18:00:00 NR -23.0000 63.0000 spur-split 614 614 __________O___ -1 -23.0000 63.0000 7 7 129
1909071S16060 1909 18 SI MM NOT_NAMED 1909-03-16 21:00:00 NR -23.2144 63.3089 spur-split 651 651 __________P___ -1 -23.2144 63.3089 7 7 125
1909071S16060 1909 18 SI MM NOT_NAMED 1909-03-17 00:00:00 NR -23.3952 63.6101 spur-split 689 689 __________P___ -1 -23.3952 63.6101 7 6 122
1909071S16060 1909 18 SI MM NOT_NAMED 1909-03-17 03:00:00 NR -23.5534 63.9062 spur-split 726 726 __________P___ -1 -23.5534 63.9062 7 6 119
1909071S16060 1909 18 SI MM NOT_NAMED 1909-03-17 06:00:00 NR -23.7000 64.2000 spur-split 758 __________O___ -1 -23.7000 64.2000 7 6 119

About IBTrACS Database

This database is a web-friendly format of International Best Track Archive for Climate Stewardship (IBTrACS), a global best track data archive curated by NOAA dating back to 1842.

Updated: 2021-12-03